sensor_id;sensor_type;location;lat;lon;timestamp;P1;durP1;ratioP1;P2;durP2;ratioP2
357;SDS011;167;47.558;7.602;2023-11-21T00:01:23;1.23;;;1.03;;
357;SDS011;167;47.558;7.602;2023-11-21T00:03:49;1.90;;;0.83;;
357;SDS011;167;47.558;7.602;2023-11-21T00:06:15;1.97;;;0.90;;
357;SDS011;167;47.558;7.602;2023-11-21T00:08:41;0.90;;;0.70;;
357;SDS011;167;47.558;7.602;2023-11-21T00:11:07;0.77;;;0.67;;
357;SDS011;167;47.558;7.602;2023-11-21T00:13:33;3.67;;;0.47;;
357;SDS011;167;47.558;7.602;2023-11-21T00:16:00;0.80;;;0.70;;
357;SDS011;167;47.558;7.602;2023-11-21T00:18:26;0.53;;;0.47;;
357;SDS011;167;47.558;7.602;2023-11-21T00:20:51;1.30;;;0.70;;
357;SDS011;167;47.558;7.602;2023-11-21T00:23:17;4.27;;;0.80;;
357;SDS011;167;47.558;7.602;2023-11-21T00:25:43;2.23;;;0.83;;
357;SDS011;167;47.558;7.602;2023-11-21T00:28:09;2.60;;;0.90;;
357;SDS011;167;47.558;7.602;2023-11-21T00:30:35;0.80;;;0.80;;
357;SDS011;167;47.558;7.602;2023-11-21T00:33:01;0.60;;;0.60;;
357;SDS011;167;47.558;7.602;2023-11-21T00:35:27;1.17;;;0.67;;
357;SDS011;167;47.558;7.602;2023-11-21T00:37:53;0.50;;;0.50;;
357;SDS011;167;47.558;7.602;2023-11-21T00:40:19;2.40;;;0.73;;
357;SDS011;167;47.558;7.602;2023-11-21T00:42:46;1.00;;;0.80;;
357;SDS011;167;47.558;7.602;2023-11-21T00:45:12;1.30;;;0.50;;
357;SDS011;167;47.558;7.602;2023-11-21T00:47:38;1.57;;;1.13;;
357;SDS011;167;47.558;7.602;2023-11-21T00:50:04;0.73;;;0.67;;
357;SDS011;167;47.558;7.602;2023-11-21T00:52:31;0.73;;;0.60;;
357;SDS011;167;47.558;7.602;2023-11-21T00:54:57;0.93;;;0.60;;
357;SDS011;167;47.558;7.602;2023-11-21T00:57:27;0.60;;;0.60;;
357;SDS011;167;47.558;7.602;2023-11-21T00:59:53;1.60;;;0.70;;
357;SDS011;167;47.558;7.602;2023-11-21T01:02:19;2.67;;;0.70;;
357;SDS011;167;47.558;7.602;2023-11-21T01:04:45;1.73;;;0.67;;
357;SDS011;167;47.558;7.602;2023-11-21T01:07:12;2.40;;;0.70;;
357;SDS011;167;47.558;7.602;2023-11-21T01:09:39;0.70;;;0.60;;
357;SDS011;167;47.558;7.602;2023-11-21T01:12:05;3.57;;;1.07;;
357;SDS011;167;47.558;7.602;2023-11-21T01:14:31;1.33;;;0.60;;
357;SDS011;167;47.558;7.602;2023-11-21T01:16:57;0.70;;;0.50;;
357;SDS011;167;47.558;7.602;2023-11-21T01:19:23;1.03;;;0.70;;
357;SDS011;167;47.558;7.602;2023-11-21T01:21:49;1.27;;;0.77;;
357;SDS011;167;47.558;7.602;2023-11-21T01:24:17;0.83;;;0.73;;
357;SDS011;167;47.558;7.602;2023-11-21T01:26:43;0.70;;;0.50;;
357;SDS011;167;47.558;7.602;2023-11-21T01:29:11;1.13;;;0.53;;
357;SDS011;167;47.558;7.602;2023-11-21T01:31:37;0.60;;;0.60;;
357;SDS011;167;47.558;7.602;2023-11-21T01:34:03;0.50;;;0.50;;
357;SDS011;167;47.558;7.602;2023-11-21T01:36:30;3.70;;;0.90;;
357;SDS011;167;47.558;7.602;2023-11-21T01:38:57;0.70;;;0.70;;
357;SDS011;167;47.558;7.602;2023-11-21T01:41:26;1.60;;;0.50;;
357;SDS011;167;47.558;7.602;2023-11-21T01:43:53;1.23;;;0.50;;
357;SDS011;167;47.558;7.602;2023-11-21T01:46:20;2.00;;;0.60;;
357;SDS011;167;47.558;7.602;2023-11-21T01:48:46;1.33;;;0.50;;
357;SDS011;167;47.558;7.602;2023-11-21T01:51:13;1.43;;;0.50;;
357;SDS011;167;47.558;7.602;2023-11-21T01:53:39;1.20;;;0.60;;
357;SDS011;167;47.558;7.602;2023-11-21T01:56:06;0.60;;;0.60;;
357;SDS011;167;47.558;7.602;2023-11-21T01:58:33;0.90;;;0.90;;
357;SDS011;167;47.558;7.602;2023-11-21T02:00:59;2.70;;;0.80;;
357;SDS011;167;47.558;7.602;2023-11-21T02:03:25;1.50;;;0.97;;
357;SDS011;167;47.558;7.602;2023-11-21T02:05:52;1.23;;;0.50;;
357;SDS011;167;47.558;7.602;2023-11-21T02:08:18;0.50;;;0.50;;
357;SDS011;167;47.558;7.602;2023-11-21T02:10:44;0.93;;;0.63;;
357;SDS011;167;47.558;7.602;2023-11-21T02:13:10;0.63;;;0.40;;
357;SDS011;167;47.558;7.602;2023-11-21T02:15:37;1.87;;;0.60;;
357;SDS011;167;47.558;7.602;2023-11-21T02:18:03;1.03;;;0.50;;
357;SDS011;167;47.558;7.602;2023-11-21T02:20:30;2.83;;;0.90;;
357;SDS011;167;47.558;7.602;2023-11-21T02:22:59;3.63;;;0.80;;
357;SDS011;167;47.558;7.602;2023-11-21T02:25:26;1.17;;;0.77;;
357;SDS011;167;47.558;7.602;2023-11-21T02:27:53;0.63;;;0.60;;
357;SDS011;167;47.558;7.602;2023-11-21T02:30:20;1.00;;;0.50;;
357;SDS011;167;47.558;7.602;2023-11-21T02:32:46;1.13;;;1.03;;
357;SDS011;167;47.558;7.602;2023-11-21T02:35:13;0.80;;;0.50;;
357;SDS011;167;47.558;7.602;2023-11-21T02:37:40;0.60;;;0.60;;
357;SDS011;167;47.558;7.602;2023-11-21T02:40:08;2.53;;;0.77;;
357;SDS011;167;47.558;7.602;2023-11-21T02:42:34;0.57;;;0.57;;
357;SDS011;167;47.558;7.602;2023-11-21T02:45:00;3.53;;;0.70;;
357;SDS011;167;47.558;7.602;2023-11-21T02:47:26;0.60;;;0.60;;
357;SDS011;167;47.558;7.602;2023-11-21T02:49:53;2.90;;;0.90;;
357;SDS011;167;47.558;7.602;2023-11-21T02:52:19;3.17;;;0.60;;
357;SDS011;167;47.558;7.602;2023-11-21T02:54:45;0.50;;;0.50;;
357;SDS011;167;47.558;7.602;2023-11-21T02:57:11;0.97;;;0.40;;
357;SDS011;167;47.558;7.602;2023-11-21T02:59:38;1.73;;;0.70;;
357;SDS011;167;47.558;7.602;2023-11-21T03:02:04;0.90;;;0.80;;
357;SDS011;167;47.558;7.602;2023-11-21T03:04:33;0.60;;;0.60;;
357;SDS011;167;47.558;7.602;2023-11-21T03:07:00;0.77;;;0.77;;
357;SDS011;167;47.558;7.602;2023-11-21T03:09:25;0.60;;;0.50;;
357;SDS011;167;47.558;7.602;2023-11-21T03:11:52;1.47;;;0.50;;
357;SDS011;167;47.558;7.602;2023-11-21T03:14:18;1.97;;;0.77;;
357;SDS011;167;47.558;7.602;2023-11-21T03:16:45;0.67;;;0.60;;
357;SDS011;167;47.558;7.602;2023-11-21T03:19:11;0.50;;;0.40;;
357;SDS011;167;47.558;7.602;2023-11-21T03:21:37;0.70;;;0.70;;
357;SDS011;167;47.558;7.602;2023-11-21T03:24:03;0.53;;;0.50;;
357;SDS011;167;47.558;7.602;2023-11-21T03:26:29;2.10;;;0.93;;
357;SDS011;167;47.558;7.602;2023-11-21T03:28:55;0.40;;;0.40;;
357;SDS011;167;47.558;7.602;2023-11-21T03:31:21;0.57;;;0.40;;
357;SDS011;167;47.558;7.602;2023-11-21T03:33:47;0.93;;;0.60;;
357;SDS011;167;47.558;7.602;2023-11-21T03:36:13;0.63;;;0.63;;
357;SDS011;167;47.558;7.602;2023-11-21T03:38:40;0.50;;;0.50;;
357;SDS011;167;47.558;7.602;2023-11-21T03:41:06;1.30;;;0.60;;
357;SDS011;167;47.558;7.602;2023-11-21T03:43:35;0.97;;;0.67;;
357;SDS011;167;47.558;7.602;2023-11-21T03:46:01;2.63;;;0.50;;
357;SDS011;167;47.558;7.602;2023-11-21T03:48:27;1.10;;;0.60;;
357;SDS011;167;47.558;7.602;2023-11-21T03:50:53;0.40;;;0.40;;
357;SDS011;167;47.558;7.602;2023-11-21T03:53:19;1.23;;;0.60;;
357;SDS011;167;47.558;7.602;2023-11-21T03:55:45;0.40;;;0.40;;
357;SDS011;167;47.558;7.602;2023-11-21T03:58:11;0.80;;;0.80;;
357;SDS011;167;47.558;7.602;2023-11-21T04:00:37;1.47;;;0.50;;
357;SDS011;167;47.558;7.602;2023-11-21T04:03:03;1.07;;;0.50;;
357;SDS011;167;47.558;7.602;2023-11-21T04:05:30;0.50;;;0.40;;
357;SDS011;167;47.558;7.602;2023-11-21T04:07:56;0.50;;;0.40;;
357;SDS011;167;47.558;7.602;2023-11-21T04:10:23;0.47;;;0.40;;
357;SDS011;167;47.558;7.602;2023-11-21T04:12:49;0.50;;;0.50;;
357;SDS011;167;47.558;7.602;2023-11-21T04:15:15;1.20;;;1.10;;
357;SDS011;167;47.558;7.602;2023-11-21T04:17:41;1.20;;;0.90;;
357;SDS011;167;47.558;7.602;2023-11-21T04:20:07;0.97;;;0.70;;
357;SDS011;167;47.558;7.602;2023-11-21T04:22:37;0.60;;;0.40;;
357;SDS011;167;47.558;7.602;2023-11-21T04:25:06;0.30;;;0.30;;
357;SDS011;167;47.558;7.602;2023-11-21T04:27:32;0.90;;;0.40;;
357;SDS011;167;47.558;7.602;2023-11-21T04:29:58;0.67;;;0.60;;
357;SDS011;167;47.558;7.602;2023-11-21T04:32:24;0.47;;;0.40;;
357;SDS011;167;47.558;7.602;2023-11-21T04:34:50;0.37;;;0.37;;
357;SDS011;167;47.558;7.602;2023-11-21T04:37:15;0.63;;;0.50;;
357;SDS011;167;47.558;7.602;2023-11-21T04:39:41;0.57;;;0.57;;
357;SDS011;167;47.558;7.602;2023-11-21T04:42:07;0.40;;;0.40;;
357;SDS011;167;47.558;7.602;2023-11-21T04:44:33;0.40;;;0.40;;
357;SDS011;167;47.558;7.602;2023-11-21T04:46:59;0.63;;;0.50;;
357;SDS011;167;47.558;7.602;2023-11-21T04:49:25;0.60;;;0.40;;
357;SDS011;167;47.558;7.602;2023-11-21T04:51:51;3.40;;;0.50;;
357;SDS011;167;47.558;7.602;2023-11-21T04:54:17;0.40;;;0.40;;
357;SDS011;167;47.558;7.602;2023-11-21T04:56:43;0.97;;;0.40;;
357;SDS011;167;47.558;7.602;2023-11-21T04:59:09;0.40;;;0.40;;
357;SDS011;167;47.558;7.602;2023-11-21T05:01:35;0.60;;;0.53;;
357;SDS011;167;47.558;7.602;2023-11-21T05:04:01;0.50;;;0.50;;
357;SDS011;167;47.558;7.602;2023-11-21T05:06:27;0.40;;;0.40;;
357;SDS011;167;47.558;7.602;2023-11-21T05:08:53;0.33;;;0.30;;
357;SDS011;167;47.558;7.602;2023-11-21T05:11:29;0.77;;;0.40;;
357;SDS011;167;47.558;7.602;2023-11-21T05:13:55;0.77;;;0.40;;
357;SDS011;167;47.558;7.602;2023-11-21T05:16:22;0.40;;;0.40;;
357;SDS011;167;47.558;7.602;2023-11-21T05:18:48;0.40;;;0.40;;
357;SDS011;167;47.558;7.602;2023-11-21T05:21:15;0.47;;;0.47;;
357;SDS011;167;47.558;7.602;2023-11-21T05:23:41;0.30;;;0.30;;
357;SDS011;167;47.558;7.602;2023-11-21T05:26:07;0.40;;;0.40;;
357;SDS011;167;47.558;7.602;2023-11-21T05:28:33;0.73;;;0.60;;
357;SDS011;167;47.558;7.602;2023-11-21T05:30:59;0.30;;;0.30;;
357;SDS011;167;47.558;7.602;2023-11-21T05:33:25;0.40;;;0.40;;
357;SDS011;167;47.558;7.602;2023-11-21T05:35:51;0.70;;;0.33;;
357;SDS011;167;47.558;7.602;2023-11-21T05:38:17;0.40;;;0.40;;
357;SDS011;167;47.558;7.602;2023-11-21T05:40:43;0.33;;;0.33;;
357;SDS011;167;47.558;7.602;2023-11-21T05:43:09;0.30;;;0.30;;
357;SDS011;167;47.558;7.602;2023-11-21T05:45:35;0.30;;;0.30;;
357;SDS011;167;47.558;7.602;2023-11-21T05:48:02;0.83;;;0.30;;
357;SDS011;167;47.558;7.602;2023-11-21T05:50:28;0.30;;;0.30;;
357;SDS011;167;47.558;7.602;2023-11-21T05:52:55;0.30;;;0.30;;
357;SDS011;167;47.558;7.602;2023-11-21T05:55:24;0.90;;;0.50;;
357;SDS011;167;47.558;7.602;2023-11-21T05:57:50;0.30;;;0.30;;
357;SDS011;167;47.558;7.602;2023-11-21T06:00:17;0.47;;;0.47;;
357;SDS011;167;47.558;7.602;2023-11-21T06:02:50;0.40;;;0.40;;
357;SDS011;167;47.558;7.602;2023-11-21T06:05:17;0.57;;;0.30;;
357;SDS011;167;47.558;7.602;2023-11-21T06:07:44;0.40;;;0.40;;
357;SDS011;167;47.558;7.602;2023-11-21T06:10:10;0.40;;;0.40;;
357;SDS011;167;47.558;7.602;2023-11-21T06:12:39;0.40;;;0.40;;
357;SDS011;167;47.558;7.602;2023-11-21T06:15:07;0.40;;;0.40;;
357;SDS011;167;47.558;7.602;2023-11-21T06:17:34;4.13;;;0.60;;
357;SDS011;167;47.558;7.602;2023-11-21T06:20:04;0.40;;;0.40;;
357;SDS011;167;47.558;7.602;2023-11-21T06:22:37;0.40;;;0.40;;
357;SDS011;167;47.558;7.602;2023-11-21T06:25:03;0.40;;;0.40;;
357;SDS011;167;47.558;7.602;2023-11-21T06:27:31;0.30;;;0.30;;
357;SDS011;167;47.558;7.602;2023-11-21T06:29:59;0.47;;;0.47;;
357;SDS011;167;47.558;7.602;2023-11-21T06:32:25;0.30;;;0.30;;
357;SDS011;167;47.558;7.602;2023-11-21T06:34:53;0.73;;;0.50;;
357;SDS011;167;47.558;7.602;2023-11-21T06:37:19;0.40;;;0.40;;
357;SDS011;167;47.558;7.602;2023-11-21T06:39:51;0.40;;;0.40;;
357;SDS011;167;47.558;7.602;2023-11-21T06:42:17;0.40;;;0.40;;
357;SDS011;167;47.558;7.602;2023-11-21T06:44:44;1.07;;;0.60;;
357;SDS011;167;47.558;7.602;2023-11-21T06:47:10;6.07;;;0.60;;
357;SDS011;167;47.558;7.602;2023-11-21T06:49:36;0.40;;;0.40;;
357;SDS011;167;47.558;7.602;2023-11-21T06:52:03;0.47;;;0.47;;
357;SDS011;167;47.558;7.602;2023-11-21T06:54:30;0.43;;;0.43;;
357;SDS011;167;47.558;7.602;2023-11-21T06:56:57;0.70;;;0.70;;
357;SDS011;167;47.558;7.602;2023-11-21T06:59:23;0.30;;;0.30;;
357;SDS011;167;47.558;7.602;2023-11-21T07:01:50;0.43;;;0.43;;
357;SDS011;167;47.558;7.602;2023-11-21T07:04:16;0.40;;;0.40;;
357;SDS011;167;47.558;7.602;2023-11-21T07:06:43;0.43;;;0.43;;
357;SDS011;167;47.558;7.602;2023-11-21T07:09:09;0.33;;;0.33;;
357;SDS011;167;47.558;7.602;2023-11-21T07:11:36;0.47;;;0.43;;
357;SDS011;167;47.558;7.602;2023-11-21T07:14:03;0.90;;;0.50;;
357;SDS011;167;47.558;7.602;2023-11-21T07:16:34;0.63;;;0.40;;
357;SDS011;167;47.558;7.602;2023-11-21T07:19:02;0.80;;;0.47;;
357;SDS011;167;47.558;7.602;2023-11-21T07:21:31;0.70;;;0.70;;
357;SDS011;167;47.558;7.602;2023-11-21T07:23:56;0.43;;;0.43;;
357;SDS011;167;47.558;7.602;2023-11-21T07:26:22;0.70;;;0.70;;
357;SDS011;167;47.558;7.602;2023-11-21T07:28:50;0.87;;;0.87;;
357;SDS011;167;47.558;7.602;2023-11-21T07:31:15;1.60;;;0.60;;
357;SDS011;167;47.558;7.602;2023-11-21T07:33:41;0.73;;;0.60;;
357;SDS011;167;47.558;7.602;2023-11-21T07:36:08;0.67;;;0.67;;
357;SDS011;167;47.558;7.602;2023-11-21T07:38:35;0.50;;;0.50;;
357;SDS011;167;47.558;7.602;2023-11-21T07:41:01;4.80;;;0.70;;
357;SDS011;167;47.558;7.602;2023-11-21T07:43:27;0.57;;;0.50;;
357;SDS011;167;47.558;7.602;2023-11-21T07:45:59;0.40;;;0.40;;
357;SDS011;167;47.558;7.602;2023-11-21T07:48:25;0.40;;;0.40;;
357;SDS011;167;47.558;7.602;2023-11-21T07:50:51;0.47;;;0.40;;
357;SDS011;167;47.558;7.602;2023-11-21T07:53:17;0.47;;;0.47;;
357;SDS011;167;47.558;7.602;2023-11-21T07:55:43;0.50;;;0.50;;
357;SDS011;167;47.558;7.602;2023-11-21T07:58:10;0.40;;;0.40;;
357;SDS011;167;47.558;7.602;2023-11-21T08:00:37;0.50;;;0.50;;
357;SDS011;167;47.558;7.602;2023-11-21T08:03:04;0.80;;;0.40;;
357;SDS011;167;47.558;7.602;2023-11-21T08:05:30;1.47;;;0.80;;
357;SDS011;167;47.558;7.602;2023-11-21T08:07:57;0.93;;;0.77;;
357;SDS011;167;47.558;7.602;2023-11-21T08:10:23;0.60;;;0.40;;
357;SDS011;167;47.558;7.602;2023-11-21T08:12:49;3.93;;;0.60;;
357;SDS011;167;47.558;7.602;2023-11-21T08:15:15;0.90;;;0.47;;
357;SDS011;167;47.558;7.602;2023-11-21T08:17:41;0.50;;;0.50;;
357;SDS011;167;47.558;7.602;2023-11-21T08:20:07;0.50;;;0.50;;
357;SDS011;167;47.558;7.602;2023-11-21T08:22:35;0.70;;;0.70;;
357;SDS011;167;47.558;7.602;2023-11-21T08:25:02;0.50;;;0.50;;
357;SDS011;167;47.558;7.602;2023-11-21T08:27:29;1.10;;;0.60;;
357;SDS011;167;47.558;7.602;2023-11-21T08:29:55;0.70;;;0.70;;
357;SDS011;167;47.558;7.602;2023-11-21T08:32:22;1.90;;;0.70;;
357;SDS011;167;47.558;7.602;2023-11-21T08:34:48;1.43;;;0.70;;
357;SDS011;167;47.558;7.602;2023-11-21T08:37:16;3.27;;;0.63;;
357;SDS011;167;47.558;7.602;2023-11-21T08:39:43;0.50;;;0.50;;
357;SDS011;167;47.558;7.602;2023-11-21T08:42:09;0.60;;;0.60;;
357;SDS011;167;47.558;7.602;2023-11-21T08:44:35;0.60;;;0.60;;
357;SDS011;167;47.558;7.602;2023-11-21T08:47:01;1.80;;;0.63;;
357;SDS011;167;47.558;7.602;2023-11-21T08:49:27;0.80;;;0.80;;
357;SDS011;167;47.558;7.602;2023-11-21T08:51:54;0.50;;;0.50;;
357;SDS011;167;47.558;7.602;2023-11-21T08:54:20;0.67;;;0.67;;
357;SDS011;167;47.558;7.602;2023-11-21T08:56:46;0.80;;;0.80;;
357;SDS011;167;47.558;7.602;2023-11-21T08:59:12;0.80;;;0.80;;
357;SDS011;167;47.558;7.602;2023-11-21T09:01:41;0.43;;;0.43;;
357;SDS011;167;47.558;7.602;2023-11-21T09:04:07;0.50;;;0.50;;
357;SDS011;167;47.558;7.602;2023-11-21T09:06:33;0.50;;;0.50;;
357;SDS011;167;47.558;7.602;2023-11-21T09:09:00;0.83;;;0.60;;
357;SDS011;167;47.558;7.602;2023-11-21T09:11:26;0.60;;;0.60;;
357;SDS011;167;47.558;7.602;2023-11-21T09:13:58;1.23;;;1.13;;
357;SDS011;167;47.558;7.602;2023-11-21T09:16:24;0.60;;;0.60;;
357;SDS011;167;47.558;7.602;2023-11-21T09:18:50;0.63;;;0.63;;
357;SDS011;167;47.558;7.602;2023-11-21T09:21:16;0.60;;;0.60;;
357;SDS011;167;47.558;7.602;2023-11-21T09:23:43;0.80;;;0.80;;
357;SDS011;167;47.558;7.602;2023-11-21T09:26:09;0.90;;;0.90;;
357;SDS011;167;47.558;7.602;2023-11-21T09:28:35;1.00;;;0.63;;
357;SDS011;167;47.558;7.602;2023-11-21T09:31:06;2.17;;;0.50;;
357;SDS011;167;47.558;7.602;2023-11-21T09:33:34;0.57;;;0.57;;
357;SDS011;167;47.558;7.602;2023-11-21T09:36:00;0.50;;;0.50;;
357;SDS011;167;47.558;7.602;2023-11-21T09:38:29;0.70;;;0.70;;
357;SDS011;167;47.558;7.602;2023-11-21T09:40:55;0.70;;;0.70;;
357;SDS011;167;47.558;7.602;2023-11-21T09:43:23;0.77;;;0.50;;
357;SDS011;167;47.558;7.602;2023-11-21T09:45:56;0.50;;;0.50;;
357;SDS011;167;47.558;7.602;2023-11-21T09:48:25;2.30;;;0.60;;
357;SDS011;167;47.558;7.602;2023-11-21T09:50:51;0.63;;;0.63;;
357;SDS011;167;47.558;7.602;2023-11-21T09:53:19;0.50;;;0.50;;
357;SDS011;167;47.558;7.602;2023-11-21T09:55:53;0.57;;;0.50;;
357;SDS011;167;47.558;7.602;2023-11-21T09:58:19;0.50;;;0.50;;
357;SDS011;167;47.558;7.602;2023-11-21T10:00:47;0.70;;;0.70;;
357;SDS011;167;47.558;7.602;2023-11-21T10:03:14;0.87;;;0.80;;
357;SDS011;167;47.558;7.602;2023-11-21T10:05:41;0.60;;;0.60;;
357;SDS011;167;47.558;7.602;2023-11-21T10:08:08;2.00;;;0.80;;
357;SDS011;167;47.558;7.602;2023-11-21T10:10:35;3.10;;;0.90;;
357;SDS011;167;47.558;7.602;2023-11-21T10:13:02;0.50;;;0.50;;
357;SDS011;167;47.558;7.602;2023-11-21T10:15:31;0.40;;;0.40;;
357;SDS011;167;47.558;7.602;2023-11-21T10:17:59;0.57;;;0.50;;
357;SDS011;167;47.558;7.602;2023-11-21T10:20:28;0.40;;;0.40;;
357;SDS011;167;47.558;7.602;2023-11-21T10:22:54;1.17;;;0.50;;
357;SDS011;167;47.558;7.602;2023-11-21T10:25:21;0.60;;;0.60;;
357;SDS011;167;47.558;7.602;2023-11-21T10:27:48;0.40;;;0.40;;
357;SDS011;167;47.558;7.602;2023-11-21T10:30:17;0.67;;;0.67;;
357;SDS011;167;47.558;7.602;2023-11-21T10:32:43;0.60;;;0.60;;
357;SDS011;167;47.558;7.602;2023-11-21T10:35:10;0.60;;;0.60;;
357;SDS011;167;47.558;7.602;2023-11-21T10:37:37;0.50;;;0.50;;
357;SDS011;167;47.558;7.602;2023-11-21T10:40:09;1.83;;;1.17;;
357;SDS011;167;47.558;7.602;2023-11-21T10:42:39;0.60;;;0.60;;
357;SDS011;167;47.558;7.602;2023-11-21T10:45:05;0.40;;;0.40;;
357;SDS011;167;47.558;7.602;2023-11-21T10:47:39;0.70;;;0.70;;
357;SDS011;167;47.558;7.602;2023-11-21T10:50:06;0.80;;;0.80;;
357;SDS011;167;47.558;7.602;2023-11-21T10:52:35;1.40;;;1.30;;
357;SDS011;167;47.558;7.602;2023-11-21T10:55:02;1.67;;;1.57;;
357;SDS011;167;47.558;7.602;2023-11-21T10:57:40;0.70;;;0.70;;
357;SDS011;167;47.558;7.602;2023-11-21T11:00:06;1.10;;;0.83;;
357;SDS011;167;47.558;7.602;2023-11-21T11:02:32;0.60;;;0.60;;
357;SDS011;167;47.558;7.602;2023-11-21T11:04:59;1.27;;;1.17;;
357;SDS011;167;47.558;7.602;2023-11-21T11:07:26;1.23;;;0.67;;
357;SDS011;167;47.558;7.602;2023-11-21T11:09:56;0.67;;;0.67;;
357;SDS011;167;47.558;7.602;2023-11-21T11:12:24;2.00;;;1.00;;
357;SDS011;167;47.558;7.602;2023-11-21T11:14:51;1.03;;;0.93;;
357;SDS011;167;47.558;7.602;2023-11-21T11:17:18;1.63;;;1.53;;
357;SDS011;167;47.558;7.602;2023-11-21T11:19:46;1.30;;;1.20;;
357;SDS011;167;47.558;7.602;2023-11-21T11:22:29;1.40;;;1.30;;
357;SDS011;167;47.558;7.602;2023-11-21T11:27:47;0.93;;;0.90;;
357;SDS011;167;47.558;7.602;2023-11-21T11:30:43;1.00;;;1.00;;
357;SDS011;167;47.558;7.602;2023-11-21T11:35:53;2.20;;;1.00;;
357;SDS011;167;47.558;7.602;2023-11-21T11:38:21;1.10;;;1.00;;
357;SDS011;167;47.558;7.602;2023-11-21T11:40:52;0.60;;;0.60;;
357;SDS011;167;47.558;7.602;2023-11-21T11:43:27;1.10;;;0.97;;
357;SDS011;167;47.558;7.602;2023-11-21T11:45:59;1.00;;;0.97;;
357;SDS011;167;47.558;7.602;2023-11-21T11:48:28;3.30;;;1.50;;
357;SDS011;167;47.558;7.602;2023-11-21T11:51:01;1.20;;;1.07;;
357;SDS011;167;47.558;7.602;2023-11-21T11:53:43;0.80;;;0.80;;
357;SDS011;167;47.558;7.602;2023-11-21T11:58:50;1.47;;;0.93;;
357;SDS011;167;47.558;7.602;2023-11-21T12:01:20;3.10;;;1.37;;
357;SDS011;167;47.558;7.602;2023-11-21T12:06:51;2.00;;;1.90;;
357;SDS011;167;47.558;7.602;2023-11-21T12:09:22;1.07;;;1.07;;
357;SDS011;167;47.558;7.602;2023-11-21T12:11:48;1.03;;;1.03;;
357;SDS011;167;47.558;7.602;2023-11-21T12:14:15;2.00;;;1.00;;
357;SDS011;167;47.558;7.602;2023-11-21T12:16:41;0.90;;;0.90;;
357;SDS011;167;47.558;7.602;2023-11-21T12:19:08;2.60;;;0.90;;
357;SDS011;167;47.558;7.602;2023-11-21T12:21:35;6.80;;;1.17;;
357;SDS011;167;47.558;7.602;2023-11-21T12:24:02;1.33;;;1.10;;
357;SDS011;167;47.558;7.602;2023-11-21T12:26:28;1.73;;;1.33;;
357;SDS011;167;47.558;7.602;2023-11-21T12:28:54;1.47;;;1.37;;
357;SDS011;167;47.558;7.602;2023-11-21T12:31:23;1.53;;;1.47;;
357;SDS011;167;47.558;7.602;2023-11-21T12:33:49;1.53;;;1.40;;
357;SDS011;167;47.558;7.602;2023-11-21T12:36:16;2.10;;;2.00;;
357;SDS011;167;47.558;7.602;2023-11-21T12:38:42;1.60;;;1.50;;
357;SDS011;167;47.558;7.602;2023-11-21T12:41:11;2.20;;;2.00;;
357;SDS011;167;47.558;7.602;2023-11-21T12:43:37;4.00;;;1.73;;
357;SDS011;167;47.558;7.602;2023-11-21T12:46:08;1.60;;;1.50;;
357;SDS011;167;47.558;7.602;2023-11-21T12:48:38;1.57;;;1.47;;
357;SDS011;167;47.558;7.602;2023-11-21T12:51:07;1.40;;;1.30;;
357;SDS011;167;47.558;7.602;2023-11-21T12:53:34;1.23;;;1.07;;
357;SDS011;167;47.558;7.602;2023-11-21T12:56:12;0.90;;;0.90;;
357;SDS011;167;47.558;7.602;2023-11-21T12:58:39;0.93;;;0.93;;
357;SDS011;167;47.558;7.602;2023-11-21T13:01:06;1.00;;;1.00;;
357;SDS011;167;47.558;7.602;2023-11-21T13:03:37;1.10;;;1.00;;
357;SDS011;167;47.558;7.602;2023-11-21T13:06:03;0.80;;;0.80;;
357;SDS011;167;47.558;7.602;2023-11-21T13:08:30;1.10;;;1.10;;
357;SDS011;167;47.558;7.602;2023-11-21T13:10:58;1.37;;;1.27;;
357;SDS011;167;47.558;7.602;2023-11-21T13:13:24;1.37;;;1.13;;
357;SDS011;167;47.558;7.602;2023-11-21T13:15:56;1.17;;;1.17;;
357;SDS011;167;47.558;7.602;2023-11-21T13:18:25;1.00;;;1.00;;
357;SDS011;167;47.558;7.602;2023-11-21T13:20:52;0.93;;;0.93;;
357;SDS011;167;47.558;7.602;2023-11-21T13:23:18;1.20;;;0.87;;
357;SDS011;167;47.558;7.602;2023-11-21T13:25:44;0.87;;;0.87;;
357;SDS011;167;47.558;7.602;2023-11-21T13:28:11;1.17;;;0.97;;
357;SDS011;167;47.558;7.602;2023-11-21T13:30:40;1.07;;;1.07;;
357;SDS011;167;47.558;7.602;2023-11-21T13:33:06;1.13;;;1.13;;
357;SDS011;167;47.558;7.602;2023-11-21T13:35:33;3.13;;;2.00;;
357;SDS011;167;47.558;7.602;2023-11-21T13:38:07;2.40;;;1.80;;
357;SDS011;167;47.558;7.602;2023-11-21T13:40:33;2.40;;;1.60;;
357;SDS011;167;47.558;7.602;2023-11-21T13:43:05;4.67;;;1.10;;
357;SDS011;167;47.558;7.602;2023-11-21T13:45:35;1.17;;;1.17;;
357;SDS011;167;47.558;7.602;2023-11-21T13:48:01;1.30;;;1.20;;
357;SDS011;167;47.558;7.602;2023-11-21T13:50:28;0.93;;;0.93;;
357;SDS011;167;47.558;7.602;2023-11-21T13:53:00;1.53;;;1.20;;
357;SDS011;167;47.558;7.602;2023-11-21T13:55:46;1.43;;;1.10;;
357;SDS011;167;47.558;7.602;2023-11-21T13:58:14;1.40;;;1.30;;
357;SDS011;167;47.558;7.602;2023-11-21T14:00:44;3.10;;;2.00;;
357;SDS011;167;47.558;7.602;2023-11-21T14:03:14;1.10;;;1.10;;
357;SDS011;167;47.558;7.602;2023-11-21T14:05:46;1.60;;;0.97;;
357;SDS011;167;47.558;7.602;2023-11-21T14:08:16;1.30;;;1.20;;
357;SDS011;167;47.558;7.602;2023-11-21T14:10:45;1.67;;;1.50;;
357;SDS011;167;47.558;7.602;2023-11-21T14:13:16;1.37;;;1.27;;
357;SDS011;167;47.558;7.602;2023-11-21T14:15:42;1.50;;;1.40;;
357;SDS011;167;47.558;7.602;2023-11-21T14:18:14;2.67;;;1.77;;
357;SDS011;167;47.558;7.602;2023-11-21T14:20:42;1.40;;;1.30;;
357;SDS011;167;47.558;7.602;2023-11-21T14:23:09;1.80;;;1.70;;
357;SDS011;167;47.558;7.602;2023-11-21T14:25:35;1.53;;;1.50;;
357;SDS011;167;47.558;7.602;2023-11-21T14:28:02;2.20;;;1.73;;
357;SDS011;167;47.558;7.602;2023-11-21T14:30:28;1.60;;;1.50;;
357;SDS011;167;47.558;7.602;2023-11-21T14:32:56;1.90;;;1.80;;
357;SDS011;167;47.558;7.602;2023-11-21T14:35:22;1.60;;;1.50;;
357;SDS011;167;47.558;7.602;2023-11-21T14:37:48;1.77;;;1.67;;
357;SDS011;167;47.558;7.602;2023-11-21T14:40:14;2.63;;;2.43;;
357;SDS011;167;47.558;7.602;2023-11-21T14:42:41;2.30;;;2.20;;
357;SDS011;167;47.558;7.602;2023-11-21T14:45:07;1.90;;;1.67;;
357;SDS011;167;47.558;7.602;2023-11-21T14:47:33;2.00;;;1.90;;
357;SDS011;167;47.558;7.602;2023-11-21T14:50:03;1.70;;;1.60;;
357;SDS011;167;47.558;7.602;2023-11-21T14:52:49;1.20;;;1.20;;
357;SDS011;167;47.558;7.602;2023-11-21T14:55:24;1.90;;;1.67;;
357;SDS011;167;47.558;7.602;2023-11-21T14:58:17;1.73;;;1.63;;
357;SDS011;167;47.558;7.602;2023-11-21T15:00:53;1.80;;;1.70;;
357;SDS011;167;47.558;7.602;2023-11-21T15:03:22;1.93;;;1.60;;
357;SDS011;167;47.558;7.602;2023-11-21T15:06:02;1.83;;;1.73;;
357;SDS011;167;47.558;7.602;2023-11-21T15:08:44;2.67;;;2.20;;
357;SDS011;167;47.558;7.602;2023-11-21T15:11:10;3.40;;;2.20;;
357;SDS011;167;47.558;7.602;2023-11-21T15:13:41;3.20;;;2.30;;
357;SDS011;167;47.558;7.602;2023-11-21T15:16:07;1.43;;;1.33;;
357;SDS011;167;47.558;7.602;2023-11-21T15:18:37;2.20;;;2.10;;
357;SDS011;167;47.558;7.602;2023-11-21T15:21:03;1.77;;;1.73;;
357;SDS011;167;47.558;7.602;2023-11-21T15:23:29;1.30;;;1.20;;
357;SDS011;167;47.558;7.602;2023-11-21T15:25:59;1.10;;;1.00;;
357;SDS011;167;47.558;7.602;2023-11-21T15:28:28;0.70;;;0.70;;
357;SDS011;167;47.558;7.602;2023-11-21T15:30:54;1.20;;;1.20;;
357;SDS011;167;47.558;7.602;2023-11-21T15:33:22;2.73;;;1.20;;
357;SDS011;167;47.558;7.602;2023-11-21T15:35:48;1.20;;;1.20;;
357;SDS011;167;47.558;7.602;2023-11-21T15:38:14;1.40;;;1.30;;
357;SDS011;167;47.558;7.602;2023-11-21T15:40:40;1.77;;;1.23;;
357;SDS011;167;47.558;7.602;2023-11-21T15:43:08;0.70;;;0.70;;
357;SDS011;167;47.558;7.602;2023-11-21T15:45:34;0.80;;;0.80;;
357;SDS011;167;47.558;7.602;2023-11-21T15:48:00;0.80;;;0.80;;
357;SDS011;167;47.558;7.602;2023-11-21T15:50:27;0.73;;;0.70;;
357;SDS011;167;47.558;7.602;2023-11-21T15:52:54;1.60;;;1.27;;
357;SDS011;167;47.558;7.602;2023-11-21T15:55:20;0.80;;;0.80;;
357;SDS011;167;47.558;7.602;2023-11-21T15:57:46;1.60;;;1.60;;